createdAt,value
2022-11-14T04:36:54.471Z,98340.59
2022-11-14T04:41:56.145Z,98340.59
2022-11-14T04:46:57.857Z,98336.11
2022-11-14T04:51:59.601Z,98336.11
2022-11-14T04:57:01.342Z,98325.42
2022-11-14T05:02:03.130Z,98325.42
2022-11-14T05:07:05.280Z,98319.93
2022-11-14T05:12:07.289Z,98319.93
2022-11-14T05:17:08.849Z,98326.27
2022-11-14T05:22:10.544Z,98312.16
2022-11-14T05:27:12.266Z,98312.16
2022-11-14T05:32:17.092Z,98311.92
2022-11-14T05:37:18.869Z,98311.92
2022-11-14T05:42:20.586Z,98313.64
2022-11-14T05:47:22.255Z,98313.64
2022-11-14T05:52:23.950Z,98302
2022-11-14T05:57:25.721Z,98302
2022-11-14T06:02:27.654Z,98319.94
2022-11-14T06:07:29.653Z,98319.94
2022-11-14T06:12:31.479Z,98321.73
2022-11-14T06:17:33.282Z,98321.73
2022-11-14T06:22:35.030Z,98325.54
2022-11-14T06:27:36.713Z,98325.54
2022-11-14T06:32:38.345Z,98329.8
2022-11-14T06:37:40.008Z,98345.52
2022-11-14T06:42:41.778Z,98345.52
2022-11-14T06:47:43.508Z,98340.13
2022-11-14T06:52:45.199Z,98340.13
2022-11-14T07:02:52.707Z,98335.5
2022-11-14T07:07:54.612Z,98335.42
2022-11-14T07:12:56.356Z,98335.42
2022-11-14T07:17:58.218Z,98341.77
2022-11-14T07:22:59.931Z,98341.77
2022-11-14T07:28:01.986Z,98340.82
2022-11-14T07:33:03.693Z,98340.82
2022-11-14T07:38:05.758Z,98339.14
2022-11-14T07:43:07.534Z,98339.14
2022-11-14T07:48:09.133Z,98345.47
2022-11-14T07:53:10.813Z,98341.34
2022-11-14T07:58:12.526Z,98341.34
2022-11-14T08:03:14.222Z,98321.22
2022-11-14T08:08:15.926Z,98321.22
2022-11-14T08:18:23.720Z,98316.01
2022-11-14T08:23:25.323Z,98314.36
2022-11-14T08:28:28.470Z,98314.36
2022-11-14T08:33:31.093Z,98309.28
2022-11-14T08:38:34.543Z,98309.28
2022-11-14T08:43:36.281Z,98297.23
2022-11-14T08:48:37.952Z,98297.23
2022-11-14T08:53:39.653Z,98296.27
2022-11-14T08:58:41.395Z,98296.27
2022-11-14T09:03:43.897Z,98296.25
2022-11-14T09:08:46.024Z,98296.25
2022-11-14T09:13:47.712Z,98294.02
2022-11-14T09:18:49.461Z,98290
2022-11-14T09:23:51.235Z,98290
2022-11-14T09:28:52.965Z,98278.48
2022-11-14T09:33:54.870Z,98278.48
2022-11-14T09:38:56.686Z,98280.42
2022-11-14T09:44:07.472Z,98280.42
2022-11-14T09:49:10.858Z,98272.48
2022-11-14T09:54:18.287Z,98272.48
2022-11-14T09:59:20.049Z,98268.75
2022-11-14T10:04:25.789Z,98268.75
2022-11-14T10:14:41.243Z,98263.56
2022-11-14T10:19:47.033Z,98240.95
2022-11-14T10:30:03.643Z,98231.12
2022-11-14T10:35:11.733Z,98219.86
2022-11-14T10:40:15.436Z,98219.86
2022-11-14T10:45:18.167Z,98205.16
2022-11-14T10:50:21.748Z,98205.16
2022-11-14T11:00:29.618Z,98197.2
2022-11-14T11:05:31.338Z,98190.88
2022-11-14T11:10:34.464Z,98190.88
2022-11-14T11:15:39.671Z,98186.27
2022-11-14T11:20:41.935Z,98186.27
2022-11-14T11:25:43.730Z,98177.16
2022-11-14T11:35:54.104Z,98160.1
2022-11-14T11:40:59.839Z,98157.16
2022-11-14T11:46:04.142Z,98157.16
2022-11-14T11:51:09.203Z,98152.03
2022-11-14T11:56:12.887Z,98152.03
2022-11-14T12:01:15.689Z,98146.06
2022-11-14T12:06:18.687Z,98146.06
2022-11-14T12:11:21.877Z,98135.44
2022-11-14T12:21:37.832Z,98116.34
2022-11-14T12:31:47.791Z,98103.14
2022-11-14T12:36:49.873Z,98103.14
2022-11-14T12:57:20.352Z,98077.3
2022-11-14T13:12:38.684Z,98072.52
2022-11-14T13:17:40.514Z,98064.7
2022-11-14T13:22:43.216Z,98064.7
2022-11-14T13:32:52.985Z,98062.06
2022-11-14T13:38:01.472Z,98053.41
2022-11-14T13:43:07.774Z,98053.41
2022-11-14T13:48:17.948Z,98045.59
2022-11-14T13:53:21.491Z,98032.08
2022-11-14T13:58:30.127Z,98032.08
2022-11-14T14:03:36.490Z,98024.42
2022-11-14T14:08:50.598Z,98024.42
2022-11-14T14:13:56.367Z,98020.9
2022-11-14T14:34:20.968Z,98010.19
2022-11-14T14:39:23.454Z,98010.19
2022-11-14T14:44:26.628Z,98012.42
2022-11-14T14:49:30.184Z,98010.09
2022-11-14T14:54:31.883Z,98010.09
2022-11-14T14:59:33.507Z,98009.31
2022-11-14T15:04:37.355Z,98009.31
2022-11-14T15:14:45.356Z,98008.88
2022-11-14T15:19:47.494Z,98010.89
2022-11-14T15:30:01.250Z,98001.38
2022-11-14T15:35:07.733Z,98001.38
2022-11-14T15:40:16.541Z,97999.58
2022-11-14T15:45:21.701Z,97999.58
2022-11-14T15:50:27.321Z,97994.7
2022-11-14T15:55:29.372Z,97994.91
2022-11-14T16:00:32.193Z,97994.91
2022-11-14T16:05:33.938Z,97990.59
2022-11-14T16:10:35.744Z,97990.59
2022-11-14T16:15:37.544Z,97995.04
2022-11-14T16:20:39.518Z,97995.04
2022-11-14T16:25:41.363Z,97997.44
2022-11-14T16:30:43.364Z,97997.44
2022-11-14T16:35:45.155Z,97999.78
2022-11-14T16:40:46.841Z,97999.78
2022-11-14T16:45:48.616Z,98004.81
2022-11-14T16:55:56.152Z,98004.64
2022-11-14T17:00:58.117Z,98004.07
2022-11-14T17:05:59.878Z,98004.07
2022-11-14T17:11:08.099Z,97999.86
2022-11-14T17:16:10.497Z,97999.86
2022-11-14T17:21:12.744Z,98001.52
2022-11-14T17:26:16.382Z,98001.52
2022-11-14T17:31:18.701Z,98007.65
2022-11-14T17:36:23.010Z,98007.65
2022-11-14T17:41:25.221Z,97991.98
2022-11-14T17:46:27.579Z,97991.98
2022-11-14T17:51:30.212Z,97986.98
2022-11-14T17:56:32.788Z,97986.98
2022-11-14T18:01:35.860Z,97994.59
2022-11-14T18:06:38.619Z,97994.59
2022-11-14T18:11:41.118Z,97986.33
2022-11-14T18:26:55.590Z,97983.37
2022-11-14T18:31:58.302Z,97983.37
2022-11-14T18:37:01.034Z,97981.23
2022-11-14T18:42:04.731Z,97981.23
2022-11-14T18:47:07.737Z,97964.36
2022-11-14T18:57:16.904Z,97952.01
2022-11-14T19:02:19.813Z,97952.01
2022-11-14T19:07:22.999Z,97949.06
2022-11-14T19:12:26.665Z,97949.06
2022-11-14T19:17:29.387Z,97958.66
2022-11-14T19:22:32.347Z,97944.52
2022-11-14T19:27:37.068Z,97944.52
2022-11-14T19:32:39.655Z,97947.23
2022-11-14T19:37:42.004Z,97947.23
2022-11-14T19:42:45.031Z,97939
2022-11-14T19:47:48.021Z,97939
2022-11-14T19:52:50.686Z,97937.28
2022-11-14T19:57:54.448Z,97937.28
2022-11-14T20:02:57.164Z,97935.58
2022-11-14T20:07:59.455Z,97935.58
2022-11-14T20:13:02.253Z,97934.81
2022-11-14T20:18:05.090Z,97934.81
2022-11-14T20:23:08.841Z,97922.14
2022-11-14T20:28:11.379Z,97922.14
2022-11-14T20:33:14.710Z,97919.39
2022-11-14T20:38:18.540Z,97930.31
2022-11-14T20:43:21.574Z,97930.31
2022-11-14T20:48:24.161Z,97927.92
2022-11-14T20:53:30.621Z,97927.92
2022-11-14T20:58:34.432Z,97923.14
2022-11-14T21:03:36.885Z,97923.14
2022-11-14T21:08:39.408Z,97899.74
2022-11-14T21:13:41.535Z,97899.74
2022-11-14T21:18:48.850Z,97897.52
2022-11-14T21:23:50.835Z,97897.52
2022-11-14T21:28:53.968Z,97900.64
2022-11-14T21:33:56.006Z,97900.64
2022-11-14T21:38:57.861Z,97886.06
2022-11-14T21:44:00.618Z,97873.97
2022-11-14T21:49:02.537Z,97873.97
2022-11-14T21:54:04.334Z,97873.97
2022-11-14T21:59:11.362Z,97873.97
2022-11-14T22:04:13.220Z,97873.97
2022-11-14T22:09:14.879Z,97873.97
2022-11-14T22:14:16.743Z,97873.97
2022-11-14T22:19:18.457Z,97873.97
2022-11-14T22:24:20.320Z,97873.97
2022-11-14T22:29:22.013Z,97873.97
2022-11-14T22:34:23.818Z,97873.97
2022-11-14T22:39:25.575Z,97873.97
